Bangkok (Don Mueang), Thailand

5:46 PM ICT on September 02, 2015 (GMT +0700)
Bangkok International | | Change Station
CLOSE
Current Station
Airport
Location: Bangkok (Don Mueang),
Elevation: 13 ft
Nearby Weather Stations

Elev 13 ft 13.92 °N, 100.61 °E | Updated 16 minutes ago

Mostly Cloudy
Mostly Cloudy
93 °F
Feels Like 102 °F
N
4
Wind Variable Wind from SW

Today
High -- | Low -- °F
--% Chance of Precip.
Yesterday
High -- | Low -- °F
Precip. -- in
6:06 AM 6:28 PM
Waning Gibbous, 81% visible
Pressure 29.71 in
Visibility 6.2 miles
Clouds Few 2000 ft
Scattered Clouds 12000 ft
Mostly Cloudy 30000 ft
Heat Index 102 °F
Dew Point 73 °F
Humidity 52%
Rainfall 0.00 in
Snow Depth Not available.
UV 1 out of 12
Pollen Not available.
Air Quality Not available.
Flu Activity Not available.
METAR VTBD 021030Z 23003KT 9999 FEW020 SCT120 BKN300 34/23 Q1006 NOSIG
Pressure 29.71 in
Visibility 6.2 miles
Clouds Few 2000 ft
Scattered Clouds 12000 ft
Mostly Cloudy 30000 ft
Heat Index 102 °F
Dew Point 73 °F
Humidity 52%
Rainfall 0.00 in
Snow Depth Not available.
UV 1 out of 12
Pollen Not available.
Air Quality Not available.
Flu Activity Not available.
METAR VTBD 021030Z 23003KT 9999 FEW020 SCT120 BKN300 34/23 Q1006 NOSIG

10-Day Weather Forecast

×

Almanac

Astronomy

Sep. 02, 2015 Rise Set
Actual Time
Civil Twilight
Nautical Twilight
Astronomical Twilight
Moon
Length of Visible Light
Length of Day
Tomorrow will be .
, % of the Moon is Illuminated

Today's Extremes

Country Highs Country Lows

Community

WunderPhotos

Upload Photos

1,851,734 photos uploaded!

WunderBlogs® & News

Nearby

Air Quality

  Air Quality AQ Index Pollutant
Not available.

Snow Depth

Station Depth Elevation

Earthquake Activity

City Distance Mag. Time & Date
Minimum magnitude displayed is 2.5.

Coastal Water Temperatures

Place Temperature

Stations

Nearby Weather Stations

Station Location Temp. Windchill Dew Point Humidity Wind Precip. Elev Updated Type